sensor_id;sensor_type;location;lat;lon;timestamp;pressure;altitude;pressure_sealevel;temperature;humidity
60897;BME280;46749;32.932;-117.130;2022-08-19T00:01:22;100928.31;;;18.93;60.71
60897;BME280;46749;32.932;-117.130;2022-08-19T00:03:49;100934.44;;;18.94;60.54
60897;BME280;46749;32.932;-117.130;2022-08-19T00:06:16;100934.44;;;18.95;60.46
60897;BME280;46749;32.932;-117.130;2022-08-19T00:08:42;100938.84;;;18.96;60.51
60897;BME280;46749;32.932;-117.130;2022-08-19T00:11:09;100933.56;;;18.96;60.78
60897;BME280;46749;32.932;-117.130;2022-08-19T00:13:35;100928.31;;;18.96;60.78
60897;BME280;46749;32.932;-117.130;2022-08-19T00:16:03;100935.31;;;18.97;60.57
60897;BME280;46749;32.932;-117.130;2022-08-19T00:18:29;100937.13;;;18.98;60.76
60897;BME280;46749;32.932;-117.130;2022-08-19T00:20:56;100933.56;;;18.98;60.58
60897;BME280;46749;32.932;-117.130;2022-08-19T00:23:22;100946.75;;;18.99;60.44
60897;BME280;46749;32.932;-117.130;2022-08-19T00:25:48;100939.75;;;18.98;60.81
60897;BME280;46749;32.932;-117.130;2022-08-19T00:28:15;100941.50;;;19.01;60.78
60897;BME280;46749;32.932;-117.130;2022-08-19T00:30:41;100938.00;;;19.00;60.73
60897;BME280;46749;32.932;-117.130;2022-08-19T00:33:07;100932.72;;;19.00;60.49
60897;BME280;46749;32.932;-117.130;2022-08-19T00:35:33;100938.00;;;19.02;60.91
60897;BME280;46749;32.932;-117.130;2022-08-19T00:38:00;100932.72;;;19.02;60.71
60897;BME280;46749;32.932;-117.130;2022-08-19T00:40:26;100930.09;;;19.03;60.33
60897;BME280;46749;32.932;-117.130;2022-08-19T00:42:52;100930.13;;;19.05;60.95
60897;BME280;46749;32.932;-117.130;2022-08-19T00:45:24;100942.38;;;19.04;60.54
60897;BME280;46749;32.932;-117.130;2022-08-19T00:47:51;100938.91;;;19.05;60.53
60897;BME280;46749;32.932;-117.130;2022-08-19T00:50:18;100938.91;;;19.05;60.58
60897;BME280;46749;32.932;-117.130;2022-08-19T00:52:49;100940.66;;;19.06;60.76
60897;BME280;46749;32.932;-117.130;2022-08-19T00:55:21;100942.41;;;19.07;60.60
60897;BME280;46749;32.932;-117.130;2022-08-19T00:57:52;100938.03;;;19.08;60.96
60897;BME280;46749;32.932;-117.130;2022-08-19T01:00:21;100934.50;;;19.09;60.49
60897;BME280;46749;32.932;-117.130;2022-08-19T01:02:48;100928.38;;;19.08;60.63
60897;BME280;46749;32.932;-117.130;2022-08-19T01:05:18;100931.00;;;19.10;60.87
60897;BME280;46749;32.932;-117.130;2022-08-19T01:07:47;100931.88;;;19.10;60.55
60897;BME280;46749;32.932;-117.130;2022-08-19T01:10:20;100929.28;;;19.12;60.94
60897;BME280;46749;32.932;-117.130;2022-08-19T01:12:48;100925.78;;;19.11;60.55
60897;BME280;46749;32.932;-117.130;2022-08-19T01:15:18;100919.63;;;19.12;60.98
60897;BME280;46749;32.932;-117.130;2022-08-19T01:17:46;100918.75;;;19.13;60.89
60897;BME280;46749;32.932;-117.130;2022-08-19T01:20:16;100916.13;;;19.13;61.01
60897;BME280;46749;32.932;-117.130;2022-08-19T01:22:44;100916.13;;;19.13;60.60
60897;BME280;46749;32.932;-117.130;2022-08-19T01:25:13;100917.88;;;19.14;60.90
60897;BME280;46749;32.932;-117.130;2022-08-19T01:27:42;100917.88;;;19.14;60.35
60897;BME280;46749;32.932;-117.130;2022-08-19T01:30:11;100921.38;;;19.17;60.79
60897;BME280;46749;32.932;-117.130;2022-08-19T01:32:37;100917.03;;;19.17;60.92
60897;BME280;46749;32.932;-117.130;2022-08-19T01:35:04;100910.84;;;19.17;60.54
60897;BME280;46749;32.932;-117.130;2022-08-19T01:37:45;100909.13;;;19.19;60.83
60897;BME280;46749;32.932;-117.130;2022-08-19T01:40:11;100910.00;;;19.18;60.71
60897;BME280;46749;32.932;-117.130;2022-08-19T01:42:37;100912.63;;;19.19;60.57
60897;BME280;46749;32.932;-117.130;2022-08-19T01:45:05;100916.13;;;19.20;60.75
60897;BME280;46749;32.932;-117.130;2022-08-19T01:47:35;100901.22;;;19.20;60.97
60897;BME280;46749;32.932;-117.130;2022-08-19T01:50:02;100901.22;;;19.20;60.72
60897;BME280;46749;32.932;-117.130;2022-08-19T01:52:29;100912.63;;;19.22;60.91
60897;BME280;46749;32.932;-117.130;2022-08-19T01:54:55;100904.72;;;19.22;61.00
60897;BME280;46749;32.932;-117.130;2022-08-19T01:57:21;100913.50;;;19.23;60.78
60897;BME280;46749;32.932;-117.130;2022-08-19T01:59:48;100910.88;;;19.23;60.95
60897;BME280;46749;32.932;-117.130;2022-08-19T02:02:14;100920.56;;;19.24;61.17
60897;BME280;46749;32.932;-117.130;2022-08-19T02:04:40;100917.94;;;19.24;60.95
60897;BME280;46749;32.932;-117.130;2022-08-19T02:07:07;100924.94;;;19.25;60.83
60897;BME280;46749;32.932;-117.130;2022-08-19T02:09:34;100917.91;;;19.25;60.71
60897;BME280;46749;32.932;-117.130;2022-08-19T02:12:00;100925.81;;;19.27;60.73
60897;BME280;46749;32.932;-117.130;2022-08-19T02:14:26;100928.44;;;19.27;61.05
60897;BME280;46749;32.932;-117.130;2022-08-19T02:16:53;100933.72;;;19.27;60.75
60897;BME280;46749;32.932;-117.130;2022-08-19T02:19:19;100935.47;;;19.28;60.98
60897;BME280;46749;32.932;-117.130;2022-08-19T02:21:45;100936.34;;;19.28;60.68
60897;BME280;46749;32.932;-117.130;2022-08-19T02:24:11;100932.84;;;19.28;61.03
60897;BME280;46749;32.932;-117.130;2022-08-19T02:26:37;100924.06;;;19.29;60.80
60897;BME280;46749;32.932;-117.130;2022-08-19T02:29:04;100933.75;;;19.30;60.94
60897;BME280;46749;32.932;-117.130;2022-08-19T02:31:30;100921.44;;;19.29;60.60
60897;BME280;46749;32.932;-117.130;2022-08-19T02:33:56;100924.09;;;19.30;60.82
60897;BME280;46749;32.932;-117.130;2022-08-19T02:36:24;100925.84;;;19.30;60.69
60897;BME280;46749;32.932;-117.130;2022-08-19T02:38:51;100928.47;;;19.31;60.99
60897;BME280;46749;32.932;-117.130;2022-08-19T02:41:24;100927.59;;;19.31;60.85
60897;BME280;46749;32.932;-117.130;2022-08-19T02:43:51;100930.22;;;19.32;60.75
60897;BME280;46749;32.932;-117.130;2022-08-19T02:46:23;100926.72;;;19.32;60.84
60897;BME280;46749;32.932;-117.130;2022-08-19T02:48:51;100933.75;;;19.33;60.76
60897;BME280;46749;32.932;-117.130;2022-08-19T02:51:33;100937.25;;;19.33;60.84
60897;BME280;46749;32.932;-117.130;2022-08-19T02:54:00;100924.09;;;19.33;61.09
60897;BME280;46749;32.932;-117.130;2022-08-19T02:56:27;100936.38;;;19.34;60.61
60897;BME280;46749;32.932;-117.130;2022-08-19T02:58:56;100939.88;;;19.35;60.94
60897;BME280;46749;32.932;-117.130;2022-08-19T03:01:31;100939.88;;;19.35;60.69
60897;BME280;46749;32.932;-117.130;2022-08-19T03:04:00;100941.69;;;19.36;60.96
60897;BME280;46749;32.932;-117.130;2022-08-19T03:06:28;100939.00;;;19.34;60.80
60897;BME280;46749;32.932;-117.130;2022-08-19T03:08:55;100938.13;;;19.35;60.60
60897;BME280;46749;32.932;-117.130;2022-08-19T03:11:27;100932.84;;;19.35;60.94
60897;BME280;46749;32.932;-117.130;2022-08-19T03:13:54;100939.03;;;19.36;60.90
60897;BME280;46749;32.932;-117.130;2022-08-19T03:16:22;100946.06;;;19.37;60.68
60897;BME280;46749;32.932;-117.130;2022-08-19T03:18:49;100947.81;;;19.36;60.63
60897;BME280;46749;32.932;-117.130;2022-08-19T03:21:18;100951.31;;;19.38;61.09
60897;BME280;46749;32.932;-117.130;2022-08-19T03:23:45;100953.09;;;19.38;61.06
60897;BME280;46749;32.932;-117.130;2022-08-19T03:26:11;100946.06;;;19.38;60.74
60897;BME280;46749;32.932;-117.130;2022-08-19T03:28:39;100954.84;;;19.39;60.68
60897;BME280;46749;32.932;-117.130;2022-08-19T03:31:09;100954.84;;;19.39;61.01
60897;BME280;46749;32.932;-117.130;2022-08-19T03:33:36;100957.47;;;19.40;60.69
60897;BME280;46749;32.932;-117.130;2022-08-19T03:36:22;100957.47;;;19.39;60.98
60897;BME280;46749;32.932;-117.130;2022-08-19T03:38:51;100961.84;;;19.40;60.87
60897;BME280;46749;32.932;-117.130;2022-08-19T03:41:23;100961.84;;;19.40;60.67
60897;BME280;46749;32.932;-117.130;2022-08-19T03:43:49;100961.84;;;19.40;60.71
60897;BME280;46749;32.932;-117.130;2022-08-19T03:46:23;100968.88;;;19.41;60.80
60897;BME280;46749;32.932;-117.130;2022-08-19T03:48:52;100975.91;;;19.40;60.75
60897;BME280;46749;32.932;-117.130;2022-08-19T03:51:22;100962.75;;;19.40;60.98
60897;BME280;46749;32.932;-117.130;2022-08-19T03:53:49;100960.97;;;19.41;60.80
60897;BME280;46749;32.932;-117.130;2022-08-19T03:56:15;100966.25;;;19.41;61.14
60897;BME280;46749;32.932;-117.130;2022-08-19T03:58:42;100963.63;;;19.41;60.81
60897;BME280;46749;32.932;-117.130;2022-08-19T04:01:11;100963.63;;;19.41;60.90
60897;BME280;46749;32.932;-117.130;2022-08-19T04:03:39;100970.63;;;19.42;61.07
60897;BME280;46749;32.932;-117.130;2022-08-19T04:06:27;100965.38;;;19.42;60.64
60897;BME280;46749;32.932;-117.130;2022-08-19T04:08:55;100970.63;;;19.42;61.05
60897;BME280;46749;32.932;-117.130;2022-08-19T04:11:29;100971.50;;;19.41;61.06
60897;BME280;46749;32.932;-117.130;2022-08-19T04:13:55;100981.19;;;19.42;61.08
60897;BME280;46749;32.932;-117.130;2022-08-19T04:16:24;100978.53;;;19.42;60.57
60897;BME280;46749;32.932;-117.130;2022-08-19T04:18:50;100979.44;;;19.43;61.09
60897;BME280;46749;32.932;-117.130;2022-08-19T04:21:25;100982.97;;;19.43;61.18
60897;BME280;46749;32.932;-117.130;2022-08-19T04:23:52;100977.69;;;19.43;60.97
60897;BME280;46749;32.932;-117.130;2022-08-19T04:26:21;100972.44;;;19.43;60.87
60897;BME280;46749;32.932;-117.130;2022-08-19T04:28:49;100979.44;;;19.44;60.87
60897;BME280;46749;32.932;-117.130;2022-08-19T04:31:22;100977.69;;;19.43;61.03
60897;BME280;46749;32.932;-117.130;2022-08-19T04:33:59;100974.19;;;19.44;61.04
60897;BME280;46749;32.932;-117.130;2022-08-19T04:36:29;100968.03;;;19.44;60.86
60897;BME280;46749;32.932;-117.130;2022-08-19T04:38:58;100975.94;;;19.44;60.69
60897;BME280;46749;32.932;-117.130;2022-08-19T04:41:25;100979.44;;;19.44;60.81
60897;BME280;46749;32.932;-117.130;2022-08-19T04:44:10;100975.94;;;19.44;61.07
60897;BME280;46749;32.932;-117.130;2022-08-19T04:46:37;100971.53;;;19.44;60.72
60897;BME280;46749;32.932;-117.130;2022-08-19T04:49:04;100970.66;;;19.44;61.00
60897;BME280;46749;32.932;-117.130;2022-08-19T04:51:32;100980.31;;;19.45;60.69
60897;BME280;46749;32.932;-117.130;2022-08-19T04:54:01;100970.66;;;19.45;60.81
60897;BME280;46749;32.932;-117.130;2022-08-19T04:56:27;100968.91;;;19.46;60.80
60897;BME280;46749;32.932;-117.130;2022-08-19T04:58:55;100971.53;;;19.46;60.77
60897;BME280;46749;32.932;-117.130;2022-08-19T05:01:29;100971.53;;;19.44;60.98
60897;BME280;46749;32.932;-117.130;2022-08-19T05:03:57;100968.91;;;19.44;60.72
60897;BME280;46749;32.932;-117.130;2022-08-19T05:06:24;100959.25;;;19.45;60.93
60897;BME280;46749;32.932;-117.130;2022-08-19T05:08:51;100958.38;;;19.46;61.02
60897;BME280;46749;32.932;-117.130;2022-08-19T05:11:26;100958.38;;;19.46;61.02
60897;BME280;46749;32.932;-117.130;2022-08-19T05:13:54;100954.84;;;19.45;61.01
60897;BME280;46749;32.932;-117.130;2022-08-19T05:16:22;100954.84;;;19.45;61.00
60897;BME280;46749;32.932;-117.130;2022-08-19T05:18:49;100947.84;;;19.44;60.95
60897;BME280;46749;32.932;-117.130;2022-08-19T05:21:35;100946.09;;;19.46;61.00
60897;BME280;46749;32.932;-117.130;2022-08-19T05:24:20;100950.47;;;19.46;60.78
60897;BME280;46749;32.932;-117.130;2022-08-19T05:26:48;100941.69;;;19.45;61.04
60897;BME280;46749;32.932;-117.130;2022-08-19T05:29:17;100939.06;;;19.45;61.08
60897;BME280;46749;32.932;-117.130;2022-08-19T05:31:46;100944.31;;;19.45;60.83
60897;BME280;46749;32.932;-117.130;2022-08-19T05:34:12;100937.31;;;19.44;60.77
60897;BME280;46749;32.932;-117.130;2022-08-19T05:36:42;100941.69;;;19.45;61.00
60897;BME280;46749;32.932;-117.130;2022-08-19T05:39:13;100939.94;;;19.44;60.99
60897;BME280;46749;32.932;-117.130;2022-08-19T05:41:42;100931.16;;;19.45;60.64
60897;BME280;46749;32.932;-117.130;2022-08-19T05:44:09;100936.44;;;19.45;61.08
60897;BME280;46749;32.932;-117.130;2022-08-19T05:46:38;100932.03;;;19.46;60.92
60897;BME280;46749;32.932;-117.130;2022-08-19T05:49:06;100939.06;;;19.45;60.80
60897;BME280;46749;32.932;-117.130;2022-08-19T05:51:34;100933.78;;;19.45;61.12
60897;BME280;46749;32.932;-117.130;2022-08-19T05:54:02;100935.53;;;19.45;61.10
60897;BME280;46749;32.932;-117.130;2022-08-19T05:56:28;100937.31;;;19.44;60.69
60897;BME280;46749;32.932;-117.130;2022-08-19T05:58:57;100936.44;;;19.45;60.68
60897;BME280;46749;32.932;-117.130;2022-08-19T06:01:25;100933.78;;;19.44;61.14
60897;BME280;46749;32.932;-117.130;2022-08-19T06:03:52;100939.94;;;19.46;60.90
60897;BME280;46749;32.932;-117.130;2022-08-19T06:06:20;100937.31;;;19.44;61.12
60897;BME280;46749;32.932;-117.130;2022-08-19T06:08:46;100927.66;;;19.45;60.98
60897;BME280;46749;32.932;-117.130;2022-08-19T06:11:22;100931.16;;;19.44;61.03
60897;BME280;46749;32.932;-117.130;2022-08-19T06:13:51;100935.56;;;19.43;60.78
60897;BME280;46749;32.932;-117.130;2022-08-19T06:16:21;100948.72;;;19.45;60.82
60897;BME280;46749;32.932;-117.130;2022-08-19T06:18:49;100942.56;;;19.44;61.08
60897;BME280;46749;32.932;-117.130;2022-08-19T06:21:21;100940.81;;;19.45;60.79
60897;BME280;46749;32.932;-117.130;2022-08-19T06:23:48;100936.44;;;19.44;60.90
60897;BME280;46749;32.932;-117.130;2022-08-19T06:26:17;100930.28;;;19.43;60.80
60897;BME280;46749;32.932;-117.130;2022-08-19T06:28:44;100930.28;;;19.43;60.99
60897;BME280;46749;32.932;-117.130;2022-08-19T06:31:19;100939.94;;;19.44;61.12
60897;BME280;46749;32.932;-117.130;2022-08-19T06:33:47;100935.56;;;19.43;60.93
60897;BME280;46749;32.932;-117.130;2022-08-19T06:38:44;100946.09;;;19.43;60.68
60897;BME280;46749;32.932;-117.130;2022-08-19T06:41:10;100930.28;;;19.43;61.01
60897;BME280;46749;32.932;-117.130;2022-08-19T06:43:36;100939.03;;;19.42;61.07
60897;BME280;46749;32.932;-117.130;2022-08-19T06:46:03;100935.53;;;19.41;61.07
60897;BME280;46749;32.932;-117.130;2022-08-19T06:48:30;100939.03;;;19.42;60.93
60897;BME280;46749;32.932;-117.130;2022-08-19T06:50:57;100938.16;;;19.41;60.83
60897;BME280;46749;32.932;-117.130;2022-08-19T06:53:23;100941.66;;;19.40;61.15
60897;BME280;46749;32.932;-117.130;2022-08-19T06:55:50;100930.25;;;19.40;61.09
60897;BME280;46749;32.932;-117.130;2022-08-19T06:58:25;100929.38;;;19.41;61.09
60897;BME280;46749;32.932;-117.130;2022-08-19T07:00:52;100929.38;;;19.39;60.90
60897;BME280;46749;32.932;-117.130;2022-08-19T07:03:18;100928.50;;;19.39;60.59
60897;BME280;46749;32.932;-117.130;2022-08-19T07:05:44;100929.38;;;19.39;60.83
60897;BME280;46749;32.932;-117.130;2022-08-19T07:08:10;100929.38;;;19.39;60.69
60897;BME280;46749;32.932;-117.130;2022-08-19T07:10:36;100928.50;;;19.39;61.15
60897;BME280;46749;32.932;-117.130;2022-08-19T07:13:03;100931.13;;;19.39;61.02
60897;BME280;46749;32.932;-117.130;2022-08-19T07:15:29;100929.38;;;19.39;60.74
60897;BME280;46749;32.932;-117.130;2022-08-19T07:17:56;100927.63;;;19.37;60.92
60897;BME280;46749;32.932;-117.130;2022-08-19T07:20:22;100939.03;;;19.39;61.36
60897;BME280;46749;32.932;-117.130;2022-08-19T07:22:49;100934.66;;;19.39;61.08
60897;BME280;46749;32.932;-117.130;2022-08-19T07:25:15;100924.13;;;19.38;61.03
60897;BME280;46749;32.932;-117.130;2022-08-19T07:27:43;100943.44;;;19.37;60.77
60897;BME280;46749;32.932;-117.130;2022-08-19T07:30:10;100938.16;;;19.37;60.88
60897;BME280;46749;32.932;-117.130;2022-08-19T07:32:37;100929.38;;;19.36;60.53
60897;BME280;46749;32.932;-117.130;2022-08-19T07:35:03;100942.56;;;19.38;60.70
60897;BME280;46749;32.932;-117.130;2022-08-19T07:37:31;100938.13;;;19.35;60.62
60897;BME280;46749;32.932;-117.130;2022-08-19T07:39:57;100939.91;;;19.36;60.85
60897;BME280;46749;32.932;-117.130;2022-08-19T07:42:23;100931.97;;;19.35;61.08
60897;BME280;46749;32.932;-117.130;2022-08-19T07:44:49;100937.25;;;19.35;60.82
60897;BME280;46749;32.932;-117.130;2022-08-19T07:47:16;100942.53;;;19.35;60.89
60897;BME280;46749;32.932;-117.130;2022-08-19T07:49:43;100950.41;;;19.35;61.02
60897;BME280;46749;32.932;-117.130;2022-08-19T07:52:09;100941.63;;;19.34;61.08
60897;BME280;46749;32.932;-117.130;2022-08-19T07:54:37;100939.00;;;19.34;61.14
60897;BME280;46749;32.932;-117.130;2022-08-19T07:57:04;100938.13;;;19.34;60.76
60897;BME280;46749;32.932;-117.130;2022-08-19T07:59:31;100938.13;;;19.34;60.93
60897;BME280;46749;32.932;-117.130;2022-08-19T08:01:58;100931.97;;;19.33;61.10
60897;BME280;46749;32.932;-117.130;2022-08-19T08:04:29;100934.63;;;19.33;60.76
60897;BME280;46749;32.932;-117.130;2022-08-19T08:07:13;100932.00;;;19.32;60.77
60897;BME280;46749;32.932;-117.130;2022-08-19T08:09:58;100917.94;;;19.33;60.88
60897;BME280;46749;32.932;-117.130;2022-08-19T08:12:32;100916.19;;;19.32;60.43
60897;BME280;46749;32.932;-117.130;2022-08-19T08:15:03;100919.69;;;19.31;60.80
60897;BME280;46749;32.932;-117.130;2022-08-19T08:17:31;100915.31;;;19.30;60.72
60897;BME280;46749;32.932;-117.130;2022-08-19T08:19:57;100907.41;;;19.30;61.21
60897;BME280;46749;32.932;-117.130;2022-08-19T08:22:24;100907.41;;;19.30;61.09
60897;BME280;46749;32.932;-117.130;2022-08-19T08:25:19;100905.63;;;19.29;60.86
60897;BME280;46749;32.932;-117.130;2022-08-19T08:27:46;100906.50;;;19.29;60.98
60897;BME280;46749;32.932;-117.130;2022-08-19T08:30:24;100905.63;;;19.29;61.19
60897;BME280;46749;32.932;-117.130;2022-08-19T08:32:51;100905.63;;;19.29;61.05
60897;BME280;46749;32.932;-117.130;2022-08-19T08:35:20;100901.25;;;19.28;60.78
60897;BME280;46749;32.932;-117.130;2022-08-19T08:37:48;100897.72;;;19.27;61.19
60897;BME280;46749;32.932;-117.130;2022-08-19T08:45:28;100902.13;;;19.27;60.87
60897;BME280;46749;32.932;-117.130;2022-08-19T08:47:58;100886.31;;;19.27;61.10
60897;BME280;46749;32.932;-117.130;2022-08-19T08:50:34;100887.19;;;19.26;60.82
60897;BME280;46749;32.932;-117.130;2022-08-19T08:53:03;100890.72;;;19.26;60.84
60897;BME280;46749;32.932;-117.130;2022-08-19T08:55:31;100888.94;;;19.25;60.76
60897;BME280;46749;32.932;-117.130;2022-08-19T08:58:03;100887.19;;;19.26;60.84
60897;BME280;46749;32.932;-117.130;2022-08-19T09:00:34;100882.81;;;19.25;60.73
60897;BME280;46749;32.932;-117.130;2022-08-19T09:03:02;100876.66;;;19.24;61.25
60897;BME280;46749;32.932;-117.130;2022-08-19T09:08:17;100881.06;;;19.24;61.03
60897;BME280;46749;32.932;-117.130;2022-08-19T09:10:54;100880.16;;;19.23;60.92
60897;BME280;46749;32.932;-117.130;2022-08-19T09:14:04;100873.13;;;19.22;60.84
60897;BME280;46749;32.932;-117.130;2022-08-19T09:16:20;100884.53;;;19.23;60.82
60897;BME280;46749;32.932;-117.130;2022-08-19T09:18:51;100880.16;;;19.22;60.92
60897;BME280;46749;32.932;-117.130;2022-08-19T09:21:20;100873.13;;;19.21;60.95
60897;BME280;46749;32.932;-117.130;2022-08-19T09:23:48;100881.03;;;19.21;61.28
60897;BME280;46749;32.932;-117.130;2022-08-19T09:26:19;100873.13;;;19.21;61.03
60897;BME280;46749;32.932;-117.130;2022-08-19T09:28:47;100874.00;;;19.21;60.97
60897;BME280;46749;32.932;-117.130;2022-08-19T09:31:18;100874.88;;;19.20;61.08
60897;BME280;46749;32.932;-117.130;2022-08-19T09:33:45;100873.13;;;19.19;60.83
60897;BME280;46749;32.932;-117.130;2022-08-19T09:36:31;100867.00;;;19.19;60.92
60897;BME280;46749;32.932;-117.130;2022-08-19T09:39:05;100873.13;;;19.19;61.00
60897;BME280;46749;32.932;-117.130;2022-08-19T09:41:32;100864.34;;;19.19;61.24
60897;BME280;46749;32.932;-117.130;2022-08-19T09:43:58;100865.25;;;19.18;61.13
60897;BME280;46749;32.932;-117.130;2022-08-19T09:46:27;100865.25;;;19.18;60.98
60897;BME280;46749;32.932;-117.130;2022-08-19T09:48:56;100858.19;;;19.17;61.19
60897;BME280;46749;32.932;-117.130;2022-08-19T09:51:25;100850.28;;;19.17;60.98
60897;BME280;46749;32.932;-117.130;2022-08-19T09:53:54;100858.19;;;19.17;60.93
60897;BME280;46749;32.932;-117.130;2022-08-19T09:56:21;100850.28;;;19.17;61.35
60897;BME280;46749;32.932;-117.130;2022-08-19T09:58:48;100863.44;;;19.17;60.77
60897;BME280;46749;32.932;-117.130;2022-08-19T10:01:25;100864.34;;;19.16;61.24
60897;BME280;46749;32.932;-117.130;2022-08-19T10:03:53;100863.44;;;19.15;61.21
60897;BME280;46749;32.932;-117.130;2022-08-19T10:06:22;100859.94;;;19.14;60.82
60897;BME280;46749;32.932;-117.130;2022-08-19T10:08:50;100859.94;;;19.14;60.79
60897;BME280;46749;32.932;-117.130;2022-08-19T10:11:18;100861.69;;;19.14;61.11
60897;BME280;46749;32.932;-117.130;2022-08-19T10:13:44;100858.19;;;19.13;61.22
60897;BME280;46749;32.932;-117.130;2022-08-19T10:16:17;100847.66;;;19.13;60.97
60897;BME280;46749;32.932;-117.130;2022-08-19T10:18:45;100852.06;;;19.13;61.37
60897;BME280;46749;32.932;-117.130;2022-08-19T10:21:14;100850.28;;;19.12;60.89
60897;BME280;46749;32.932;-117.130;2022-08-19T10:23:43;100849.41;;;19.11;60.87
60897;BME280;46749;32.932;-117.130;2022-08-19T10:26:15;100854.69;;;19.11;61.20
60897;BME280;46749;32.932;-117.130;2022-08-19T10:28:42;100857.31;;;19.11;61.19
60897;BME280;46749;32.932;-117.130;2022-08-19T10:31:13;100856.44;;;19.11;61.03
60897;BME280;46749;32.932;-117.130;2022-08-19T10:33:41;100855.53;;;19.10;61.39
60897;BME280;46749;32.932;-117.130;2022-08-19T10:36:10;100856.41;;;19.09;61.24
60897;BME280;46749;32.932;-117.130;2022-08-19T10:38:37;100856.41;;;19.09;60.97
60897;BME280;46749;32.932;-117.130;2022-08-19T10:41:12;100845.88;;;19.09;61.24
60897;BME280;46749;32.932;-117.130;2022-08-19T10:43:40;100837.09;;;19.09;61.01
60897;BME280;46749;32.932;-117.130;2022-08-19T10:46:09;100827.47;;;19.08;61.32
60897;BME280;46749;32.932;-117.130;2022-08-19T10:48:36;100834.47;;;19.07;60.98
60897;BME280;46749;32.932;-117.130;2022-08-19T10:51:03;100831.84;;;19.07;61.31
60897;BME280;46749;32.932;-117.130;2022-08-19T10:53:48;100832.72;;;19.06;61.37
60897;BME280;46749;32.932;-117.130;2022-08-19T10:56:15;100833.59;;;19.05;61.24
60897;BME280;46749;32.932;-117.130;2022-08-19T10:58:59;100836.25;;;19.05;61.12
60897;BME280;46749;32.932;-117.130;2022-08-19T11:01:26;100835.34;;;19.05;61.35
60897;BME280;46749;32.932;-117.130;2022-08-19T11:03:52;100844.13;;;19.05;61.12
60897;BME280;46749;32.932;-117.130;2022-08-19T11:06:19;100830.06;;;19.03;61.21
60897;BME280;46749;32.932;-117.130;2022-08-19T11:08:46;100847.59;;;19.04;60.97
60897;BME280;46749;32.932;-117.130;2022-08-19T11:11:12;100828.31;;;19.04;61.30
60897;BME280;46749;32.932;-117.130;2022-08-19T11:13:40;100831.81;;;19.03;61.15
60897;BME280;46749;32.932;-117.130;2022-08-19T11:16:18;100834.44;;;19.03;61.15
60897;BME280;46749;32.932;-117.130;2022-08-19T11:18:50;100836.22;;;19.02;61.07
60897;BME280;46749;32.932;-117.130;2022-08-19T11:21:28;100843.22;;;19.02;61.20
60897;BME280;46749;32.932;-117.130;2022-08-19T11:24:01;100844.97;;;19.01;61.37
60897;BME280;46749;32.932;-117.130;2022-08-19T11:26:29;100833.59;;;19.01;61.09
60897;BME280;46749;32.932;-117.130;2022-08-19T11:28:57;100840.59;;;19.00;61.14
60897;BME280;46749;32.932;-117.130;2022-08-19T11:31:29;100844.97;;;19.00;61.05
60897;BME280;46749;32.932;-117.130;2022-08-19T11:34:00;100843.22;;;19.00;60.99
60897;BME280;46749;32.932;-117.130;2022-08-19T11:36:29;100838.84;;;18.99;60.98
60897;BME280;46749;32.932;-117.130;2022-08-19T11:38:56;100837.97;;;18.99;61.02
60897;BME280;46749;32.932;-117.130;2022-08-19T11:41:23;100839.72;;;18.98;61.23
60897;BME280;46749;32.932;-117.130;2022-08-19T11:43:51;100844.09;;;18.99;61.13
60897;BME280;46749;32.932;-117.130;2022-08-19T11:46:20;100837.09;;;18.98;60.93
60897;BME280;46749;32.932;-117.130;2022-08-19T11:48:46;100842.34;;;18.98;61.34
60897;BME280;46749;32.932;-117.130;2022-08-19T11:51:17;100834.44;;;18.97;60.88
60897;BME280;46749;32.932;-117.130;2022-08-19T11:53:44;100835.31;;;18.97;61.11
60897;BME280;46749;32.932;-117.130;2022-08-19T11:56:11;100833.56;;;18.96;61.33
60897;BME280;46749;32.932;-117.130;2022-08-19T11:58:38;100844.09;;;18.96;61.37
60897;BME280;46749;32.932;-117.130;2022-08-19T12:01:06;100843.19;;;18.96;60.95
60897;BME280;46749;32.932;-117.130;2022-08-19T12:03:33;100838.81;;;18.96;61.16
60897;BME280;46749;32.932;-117.130;2022-08-19T12:06:04;100837.94;;;18.94;61.24
60897;BME280;46749;32.932;-117.130;2022-08-19T12:08:30;100835.31;;;18.94;61.30
60897;BME280;46749;32.932;-117.130;2022-08-19T12:10:56;100839.69;;;18.94;60.97
60897;BME280;46749;32.932;-117.130;2022-08-19T12:13:23;100835.31;;;18.94;61.20
60897;BME280;46749;32.932;-117.130;2022-08-19T12:15:49;100831.81;;;18.92;61.35
60897;BME280;46749;32.932;-117.130;2022-08-19T12:18:15;100837.94;;;18.93;61.40
60897;BME280;46749;32.932;-117.130;2022-08-19T12:20:42;100830.06;;;18.93;61.05
60897;BME280;46749;32.932;-117.130;2022-08-19T12:23:10;100834.44;;;18.92;61.43
60897;BME280;46749;32.932;-117.130;2022-08-19T12:25:37;100830.91;;;18.92;61.30
60897;BME280;46749;32.932;-117.130;2022-08-19T12:28:04;100836.16;;;18.92;61.25
60897;BME280;46749;32.932;-117.130;2022-08-19T12:30:30;100835.28;;;18.91;60.93
60897;BME280;46749;32.932;-117.130;2022-08-19T12:32:56;100838.78;;;18.90;61.12
60897;BME280;46749;32.932;-117.130;2022-08-19T12:35:22;100843.19;;;18.90;61.13
60897;BME280;46749;32.932;-117.130;2022-08-19T12:37:49;100832.66;;;18.90;61.15
60897;BME280;46749;32.932;-117.130;2022-08-19T12:40:15;100837.03;;;18.89;61.03